KSBN/SBN METAR and TAF weather

Enter ICAO airport designator
Station Type Date Time Source
KSBN METAR 2024/05/28 22:54 UTC NOAA

KSBN 282254Z 34006KT 10SM FEW100 20/10 A2993 RMK AO2 LTG DSNT SW SLP133 T02000100


Station Type Date Time Source
KSBN Decoded METAR 2024/05/28 22:54 UTC NOAA

SOUTH BEND REGIONAL AIRPORT, IN, United States (KSBN) 41-42N 086-19W 237M
May 28, 2024 - 06:54 PM EDT / 2024.05.28 2254 UTC
Wind: from the NNW (340 degrees) at 7 MPH (6 KT):0
Visibility: 10 mile(s):0
Sky conditions: mostly clear
Weather: Lightning observed
Temperature: 68.0 F (20.0 C)
Dew Point: 50.0 F (10.0 C)
Relative Humidity: 52%
Pressure (altimeter): 29.93 in. Hg (1013 hPa)
ob: KSBN 282254Z 34006KT 10SM FEW100 20/10 A2993 RMK AO2 LTG DSNT SW SLP133 T02000100
cycle: 23

Station Type Date Time Source
KSBN TAF 2024/05/28 18:27 UTC NOAA